Time;durP1;ratioP1;P1;durP2;ratioP2;P2;SDS_P1;SDS_P2;PMS_P1;PMS_P2;Temp;Humidity;BMP_temperature;BMP_pressure;BME280_temperature;BME280_humidity;BME280_pressure;Samples;Min_cycle;Max_cycle;Signal;HPM_P1;HPM_P2
2023/12/25 00:00:00;;;;;;;0.10;0.10;;;10.80;99.90;;;;;;5039553;28;20048;-84
2023/12/25 00:02:26;;;;;;;0.10;0.10;;;10.80;99.90;;;;;;5022265;28;20056;-81
2023/12/25 00:04:52;;;;;;;0.20;0.20;;;10.80;99.90;;;;;;5018190;28;20045;-82
2023/12/25 00:07:18;;;;;;;0.10;0.10;;;10.70;99.90;;;;;;5047557;28;20033;-78
2023/12/25 00:09:44;;;;;;;0.10;0.10;;;10.70;99.90;;;;;;5014684;28;20037;-80
2023/12/25 00:12:11;;;;;;;0.10;0.10;;;10.70;99.90;;;;;;5032022;28;20052;-78
2023/12/25 00:14:38;;;;;;;0.10;0.10;;;10.70;99.90;;;;;;5037312;28;20463;-80
2023/12/25 00:17:04;;;;;;;0.10;0.10;;;10.60;1.00;;;;;;5033861;28;20052;-83
2023/12/25 00:19:30;;;;;;;0.10;0.10;;;10.60;1.00;;;;;;5028596;28;20037;-80
2023/12/25 00:21:58;;;;;;;0.38;0.38;;;10.60;1.00;;;;;;5015999;28;20046;-82
2023/12/25 00:24:24;;;;;;;0.13;0.13;;;10.60;1.00;;;;;;5016174;28;20045;-80
2023/12/25 00:26:50;;;;;;;0.20;0.20;;;10.50;1.00;;;;;;5024563;28;20052;-80
2023/12/25 00:29:17;;;;;;;0.10;0.10;;;10.50;1.00;;;;;;5012257;28;20037;-82
2023/12/25 00:31:43;;;;;;;0.10;0.10;;;10.50;1.00;;;;;;5003240;28;20061;-82
2023/12/25 00:34:09;;;;;;;0.10;0.10;;;10.50;1.00;;;;;;5003528;28;20053;-84
2023/12/25 00:36:36;;;;;;;0.25;0.10;;;10.50;1.00;;;;;;5004945;28;20053;-81
2023/12/25 00:39:03;;;;;;;0.10;0.10;;;10.50;1.00;;;;;;4993336;28;20046;-79
2023/12/25 00:41:31;;;;;;;4.65;1.05;;;10.40;1.00;;;;;;4981289;28;20114;-78
2023/12/25 00:43:58;;;;;;;0.10;0.10;;;10.40;1.00;;;;;;4985934;28;20054;-77
2023/12/25 00:46:25;;;;;;;0.10;0.10;;;10.40;1.00;;;;;;5011385;28;20150;-77
2023/12/25 00:48:51;;;;;;;0.10;0.10;;;10.40;1.00;;;;;;4989977;28;20039;-78
2023/12/25 00:51:19;;;;;;;0.10;0.10;;;10.40;1.00;;;;;;4993787;28;20514;-79
2023/12/25 00:53:45;;;;;;;0.10;0.10;;;10.50;1.00;;;;;;5007984;28;20122;-76
2023/12/25 00:56:11;;;;;;;0.20;0.20;;;10.50;1.00;;;;;;4992171;28;20053;-78
2023/12/25 00:58:37;;;;;;;1.65;0.50;;;10.50;1.00;;;;;;4990200;28;20038;-77
2023/12/25 01:01:03;;;;;;;0.20;0.20;;;10.40;1.00;;;;;;5004861;28;20042;-78
2023/12/25 01:03:30;;;;;;;0.20;0.20;;;10.30;1.00;;;;;;4992699;28;20052;-79
2023/12/25 01:05:56;;;;;;;0.70;0.40;;;10.40;1.00;;;;;;5007501;28;20129;-77
2023/12/25 01:08:22;;;;;;;0.10;0.10;;;10.40;1.00;;;;;;5021854;28;20042;-76
2023/12/25 01:10:48;;;;;;;0.10;0.10;;;10.30;1.00;;;;;;5008100;28;20049;-78
2023/12/25 01:13:15;;;;;;;0.10;0.10;;;10.30;1.00;;;;;;5020670;28;20045;-77
2023/12/25 01:15:41;;;;;;;0.10;0.10;;;10.30;1.00;;;;;;5011051;28;20038;-78
2023/12/25 01:18:08;;;;;;;0.13;0.13;;;10.30;1.00;;;;;;5016996;28;20474;-77
2023/12/25 01:20:34;;;;;;;0.10;0.10;;;10.20;1.00;;;;;;5023748;28;20033;-77
2023/12/25 01:23:01;;;;;;;0.13;0.13;;;10.20;1.00;;;;;;5041892;28;20056;-78
2023/12/25 01:25:27;;;;;;;0.35;0.20;;;10.30;1.00;;;;;;5038148;28;20029;-78
2023/12/25 01:27:53;;;;;;;0.10;0.10;;;10.30;1.00;;;;;;5019824;28;20609;-79
2023/12/25 01:30:20;;;;;;;0.10;0.10;;;10.20;1.00;;;;;;5034369;28;20052;-77
2023/12/25 01:32:46;;;;;;;0.20;0.17;;;10.20;1.00;;;;;;5030663;28;20048;-76
2023/12/25 01:35:12;;;;;;;0.10;0.10;;;10.20;1.00;;;;;;5022075;28;20060;-78
2023/12/25 01:37:38;;;;;;;0.10;0.10;;;10.10;1.00;;;;;;5039917;28;20034;-78
2023/12/25 01:40:05;;;;;;;0.20;0.20;;;10.10;1.00;;;;;;5028297;28;20029;-77
2023/12/25 01:42:31;;;;;;;0.10;0.10;;;10.10;1.00;;;;;;5038899;28;20037;-79
2023/12/25 01:44:58;;;;;;;0.20;0.20;;;10.10;1.00;;;;;;5015108;28;20052;-79
2023/12/25 01:47:24;;;;;;;0.65;0.40;;;10.10;1.00;;;;;;5041072;28;20044;-80
2023/12/25 01:49:52;;;;;;;0.10;0.10;;;10.10;1.00;;;;;;5044463;28;20703;-77
2023/12/25 01:52:19;;;;;;;0.10;0.10;;;10.10;1.00;;;;;;5040420;28;20030;-77
2023/12/25 01:54:45;;;;;;;0.10;0.10;;;10.10;1.00;;;;;;5035228;28;20039;-78
2023/12/25 01:57:12;;;;;;;0.10;0.10;;;10.10;1.00;;;;;;5032719;28;20041;-78
2023/12/25 01:59:39;;;;;;;3.40;0.45;;;10.10;1.00;;;;;;5024819;28;20049;-81
2023/12/25 02:02:06;;;;;;;0.10;0.10;;;10.10;1.00;;;;;;5034376;28;20500;-83
2023/12/25 02:04:32;;;;;;;0.25;0.20;;;10.10;1.00;;;;;;5027467;28;20045;-84
2023/12/25 02:06:59;;;;;;;0.17;0.17;;;10.10;1.00;;;;;;5043757;28;20459;-88
2023/12/25 02:09:27;;;;;;;0.22;0.22;;;10.10;1.00;;;;;;5029598;28;20037;-84
2023/12/25 02:11:54;;;;;;;0.10;0.10;;;10.20;1.00;;;;;;5030937;28;20492;-85
2023/12/25 02:14:20;;;;;;;0.10;0.10;;;10.10;1.00;;;;;;4982346;28;20042;-77
2023/12/25 02:16:47;;;;;;;0.10;0.10;;;10.10;1.00;;;;;;5009078;28;20586;-82
2023/12/25 02:19:32;;;;;;;0.20;0.20;;;10.10;1.00;;;;;;5011281;28;20042;-76
2023/12/25 02:21:59;;;;;;;0.10;0.10;;;10.10;1.00;;;;;;4969095;28;20042;-77
2023/12/25 02:24:31;;;;;;;0.15;0.15;;;10.10;1.00;;;;;;4984173;28;20061;-77
2023/12/25 02:26:57;;;;;;;0.95;0.52;;;10.20;1.00;;;;;;4992001;28;20050;-76
2023/12/25 02:29:23;;;;;;;0.10;0.10;;;10.10;1.00;;;;;;4986089;28;20057;-80
2023/12/25 02:31:50;;;;;;;0.10;0.10;;;10.20;1.00;;;;;;4966764;28;20046;-84
2023/12/25 02:34:17;;;;;;;0.10;0.10;;;10.20;1.00;;;;;;4971913;28;20051;-81
2023/12/25 02:36:43;;;;;;;0.10;0.10;;;10.20;1.00;;;;;;4995600;28;20038;-81
2023/12/25 02:39:09;;;;;;;0.63;0.63;;;10.20;1.00;;;;;;4993994;28;20038;-76
2023/12/25 02:41:35;;;;;;;0.10;0.10;;;10.20;1.00;;;;;;4983569;28;20049;-76
2023/12/25 02:44:02;;;;;;;0.10;0.10;;;10.20;1.00;;;;;;4982990;28;20596;-80
2023/12/25 02:46:30;;;;;;;0.10;0.10;;;10.20;1.00;;;;;;5018389;28;20048;-83
2023/12/25 02:48:56;;;;;;;0.10;0.10;;;10.20;1.00;;;;;;5022167;28;20352;-80
2023/12/25 02:51:22;;;;;;;0.20;0.20;;;10.20;1.00;;;;;;5040991;28;20033;-79
2023/12/25 02:53:48;;;;;;;0.10;0.10;;;10.20;1.00;;;;;;5025566;28;20458;-82
2023/12/25 02:56:15;;;;;;;0.10;0.10;;;10.20;1.00;;;;;;5043358;28;20041;-81
2023/12/25 02:58:41;;;;;;;0.20;0.20;;;10.20;1.00;;;;;;5023568;28;20045;-79
2023/12/25 03:01:07;;;;;;;0.10;0.10;;;10.30;1.00;;;;;;5031874;28;20037;-81
2023/12/25 03:03:33;;;;;;;0.10;0.10;;;10.30;1.00;;;;;;5023527;28;20498;-81
2023/12/25 03:06:00;;;;;;;0.00;0.00;;;10.30;1.00;;;;;;5013774;28;20526;-79
2023/12/25 03:08:26;;;;;;;0.10;0.10;;;10.30;1.00;;;;;;5017256;28;20044;-84
2023/12/25 03:10:52;;;;;;;0.10;0.10;;;10.30;1.00;;;;;;4997381;28;20053;-82
2023/12/25 03:13:18;;;;;;;0.17;0.17;;;10.30;1.00;;;;;;5033386;28;20030;-82
2023/12/25 03:15:44;;;;;;;0.10;0.10;;;10.30;1.00;;;;;;5014164;28;20053;-84
2023/12/25 03:18:11;;;;;;;0.10;0.10;;;10.20;1.00;;;;;;5018861;28;20037;-82
2023/12/25 03:20:37;;;;;;;0.20;0.20;;;10.30;1.00;;;;;;4999670;28;20343;-80
2023/12/25 03:23:04;;;;;;;0.10;0.10;;;10.30;1.00;;;;;;5043340;28;20040;-81
2023/12/25 03:25:31;;;;;;;0.10;0.10;;;10.30;1.00;;;;;;5041907;28;20044;-81
2023/12/25 03:27:57;;;;;;;0.20;0.20;;;10.20;1.00;;;;;;5029584;28;20041;-83
2023/12/25 03:30:24;;;;;;;0.20;0.20;;;10.20;1.00;;;;;;5049097;28;20040;-81
2023/12/25 03:32:50;;;;;;;0.10;0.10;;;10.20;1.00;;;;;;5019558;28;20052;-80
2023/12/25 03:35:18;;;;;;;0.10;0.10;;;10.20;1.00;;;;;;5057060;28;20033;-83
2023/12/25 03:37:44;;;;;;;0.10;0.10;;;10.20;1.00;;;;;;5036332;28;20046;-81
2023/12/25 03:40:11;;;;;;;0.10;0.10;;;10.20;1.00;;;;;;5022844;28;20053;-82
2023/12/25 03:42:38;;;;;;;0.10;0.10;;;10.20;1.00;;;;;;5015363;28;20121;-79
2023/12/25 03:45:04;;;;;;;0.10;0.10;;;10.20;1.00;;;;;;5033118;28;20482;-80
2023/12/25 03:47:30;;;;;;;0.10;0.10;;;10.10;1.00;;;;;;5033039;28;20048;-83
2023/12/25 03:49:56;;;;;;;0.10;0.10;;;10.10;1.00;;;;;;5026014;28;20052;-81
2023/12/25 03:52:22;;;;;;;0.10;0.10;;;10.10;1.00;;;;;;5034768;28;20036;-80
2023/12/25 03:54:49;;;;;;;0.10;0.10;;;10.10;1.00;;;;;;5059482;28;20033;-78
2023/12/25 03:57:15;;;;;;;0.10;0.10;;;10.10;1.00;;;;;;5044010;28;20037;-81
2023/12/25 03:59:41;;;;;;;0.10;0.10;;;10.10;1.00;;;;;;5036973;28;20029;-79
2023/12/25 04:02:08;;;;;;;0.10;0.10;;;10.10;1.00;;;;;;5021502;28;20033;-75
2023/12/25 04:04:35;;;;;;;0.13;0.13;;;10.10;1.00;;;;;;5030567;28;20367;-78
2023/12/25 04:07:01;;;;;;;0.10;0.10;;;10.10;1.00;;;;;;5008404;28;20391;-81
2023/12/25 04:09:28;;;;;;;0.20;0.20;;;10.10;1.00;;;;;;5046641;28;20509;-78
2023/12/25 04:11:54;;;;;;;0.00;0.00;;;10.10;1.00;;;;;;5023956;28;20068;-81
2023/12/25 04:14:20;;;;;;;0.00;0.00;;;10.20;1.00;;;;;;5038936;28;20033;-80
2023/12/25 04:16:51;;;;;;;0.10;0.10;;;10.10;1.00;;;;;;5056990;28;20048;-86
2023/12/25 04:19:17;;;;;;;0.10;0.10;;;10.10;1.00;;;;;;5036324;28;20537;-84
2023/12/25 04:24:36;;;;;;;0.30;0.30;;;10.10;1.00;;;;;;5021088;28;20501;-79
2023/12/25 04:27:03;;;;;;;0.20;0.20;;;10.10;1.00;;;;;;5021138;28;20099;-85
2023/12/25 04:29:29;;;;;;;0.10;0.10;;;10.10;1.00;;;;;;5022700;28;20034;-78
2023/12/25 04:31:55;;;;;;;0.10;0.10;;;10.10;1.00;;;;;;5038037;28;20034;-79
2023/12/25 04:34:21;;;;;;;0.10;0.10;;;10.00;1.00;;;;;;5061623;28;20483;-76
2023/12/25 04:36:48;;;;;;;0.10;0.10;;;10.10;1.00;;;;;;5014093;28;20036;-79
2023/12/25 04:39:14;;;;;;;0.10;0.10;;;10.10;1.00;;;;;;5040023;28;20045;-76
2023/12/25 04:41:40;;;;;;;0.10;0.10;;;10.10;1.00;;;;;;5036382;28;20028;-76
2023/12/25 04:44:07;;;;;;;0.10;0.10;;;10.10;1.00;;;;;;5051978;28;20412;-79
2023/12/25 04:46:35;;;;;;;0.10;0.10;;;10.10;1.00;;;;;;5040883;28;20060;-79
2023/12/25 04:49:02;;;;;;;0.20;0.20;;;10.10;1.00;;;;;;5024792;28;20041;-80
2023/12/25 04:51:28;;;;;;;0.10;0.10;;;10.10;1.00;;;;;;5036950;28;20128;-77
2023/12/25 04:53:54;;;;;;;0.10;0.10;;;10.00;1.00;;;;;;5037064;28;20040;-78
2023/12/25 04:56:20;;;;;;;0.22;0.20;;;10.10;1.00;;;;;;5033256;28;20052;-76
2023/12/25 04:58:47;;;;;;;0.00;0.00;;;10.00;1.00;;;;;;5031700;28;20045;-82
2023/12/25 05:01:13;;;;;;;0.20;0.20;;;10.10;1.00;;;;;;5023863;28;20059;-80
2023/12/25 05:03:41;;;;;;;0.10;0.10;;;10.10;1.00;;;;;;5056546;28;20040;-79
2023/12/25 05:06:07;;;;;;;0.10;0.10;;;10.10;1.00;;;;;;5022119;28;20498;-77
2023/12/25 05:08:33;;;;;;;0.10;0.10;;;10.10;1.00;;;;;;5013830;28;20053;-78
2023/12/25 05:10:59;;;;;;;0.10;0.10;;;10.10;1.00;;;;;;5022603;28;20044;-77
2023/12/25 05:13:26;;;;;;;0.10;0.10;;;10.10;1.00;;;;;;5031508;28;20083;-80
2023/12/25 05:15:53;;;;;;;0.10;0.10;;;10.10;1.00;;;;;;5014268;28;20506;-82
2023/12/25 05:18:19;;;;;;;0.10;0.10;;;10.10;1.00;;;;;;5037817;28;20029;-80
2023/12/25 05:20:46;;;;;;;0.10;0.10;;;10.20;1.00;;;;;;5031321;28;20056;-78
2023/12/25 05:23:12;;;;;;;0.10;0.10;;;10.10;1.00;;;;;;5040514;28;20049;-78
2023/12/25 05:25:38;;;;;;;0.10;0.10;;;10.10;1.00;;;;;;5050762;28;20028;-78
2023/12/25 05:28:04;;;;;;;0.10;0.10;;;10.10;1.00;;;;;;5041887;28;20030;-78
2023/12/25 05:30:31;;;;;;;0.35;0.35;;;10.10;1.00;;;;;;5014135;28;20371;-78
2023/12/25 05:32:57;;;;;;;0.20;0.20;;;10.10;1.00;;;;;;5038818;28;20037;-82
2023/12/25 05:35:23;;;;;;;0.10;0.10;;;10.10;1.00;;;;;;5038703;28;20036;-83
2023/12/25 05:37:49;;;;;;;0.65;0.63;;;10.10;1.00;;;;;;5023978;28;20041;-82
2023/12/25 05:40:16;;;;;;;0.35;0.35;;;10.10;1.00;;;;;;5023534;28;20036;-82
2023/12/25 05:42:42;;;;;;;0.10;0.10;;;10.10;1.00;;;;;;5038226;28;20025;-81
2023/12/25 05:45:08;;;;;;;0.30;0.30;;;10.10;1.00;;;;;;5067383;28;20037;-76
2023/12/25 05:47:34;;;;;;;0.00;0.00;;;10.10;1.00;;;;;;5042277;28;20029;-77
2023/12/25 05:50:01;;;;;;;0.10;0.10;;;10.10;1.00;;;;;;5039429;28;20378;-78
2023/12/25 05:52:27;;;;;;;0.57;0.28;;;10.10;1.00;;;;;;5042738;28;20125;-78
2023/12/25 05:54:53;;;;;;;0.10;0.10;;;10.10;1.00;;;;;;5056378;28;20330;-78
2023/12/25 05:57:19;;;;;;;0.10;0.10;;;10.10;1.00;;;;;;5019036;28;20068;-79
2023/12/25 05:59:45;;;;;;;0.10;0.10;;;10.10;1.00;;;;;;5040994;28;20505;-78
2023/12/25 06:02:11;;;;;;;0.20;0.20;;;10.10;1.00;;;;;;5043279;28;20030;-77
2023/12/25 06:04:38;;;;;;;0.10;0.10;;;10.20;1.00;;;;;;5044989;28;20033;-77
2023/12/25 06:07:04;;;;;;;0.10;0.10;;;10.20;1.00;;;;;;5041057;28;20383;-81
2023/12/25 06:09:30;;;;;;;0.10;0.10;;;10.20;1.00;;;;;;5009141;28;20037;-79
2023/12/25 06:11:57;;;;;;;0.10;0.10;;;10.20;1.00;;;;;;5034202;28;20049;-78
2023/12/25 06:14:23;;;;;;;0.10;0.10;;;10.20;1.00;;;;;;5055083;28;20041;-78
2023/12/25 06:16:49;;;;;;;0.20;0.20;;;10.20;1.00;;;;;;5046051;28;20048;-76
2023/12/25 06:19:16;;;;;;;0.10;0.10;;;10.20;1.00;;;;;;5049429;28;20036;-76
2023/12/25 06:21:42;;;;;;;0.10;0.10;;;10.10;1.00;;;;;;5043191;28;20041;-77
2023/12/25 06:24:08;;;;;;;0.20;0.20;;;10.10;1.00;;;;;;5034070;28;20053;-77
2023/12/25 06:26:35;;;;;;;0.88;0.88;;;10.10;1.00;;;;;;5042905;28;20394;-77
2023/12/25 06:29:01;;;;;;;0.75;0.75;;;10.10;1.00;;;;;;5040543;28;20459;-77
2023/12/25 06:31:27;;;;;;;0.50;0.50;;;10.10;1.00;;;;;;5039361;28;20037;-76
2023/12/25 06:33:53;;;;;;;0.40;0.40;;;10.10;1.00;;;;;;5049604;28;20041;-76
2023/12/25 06:36:19;;;;;;;0.20;0.20;;;10.10;1.00;;;;;;5043829;28;20390;-77
2023/12/25 06:38:45;;;;;;;0.82;0.35;;;10.10;1.00;;;;;;5042578;28;20021;-77
2023/12/25 06:41:12;;;;;;;1.25;0.43;;;10.00;1.00;;;;;;5038484;28;20461;-77
2023/12/25 06:43:38;;;;;;;1.38;1.23;;;10.10;1.00;;;;;;5030691;28;20053;-76
2023/12/25 06:46:04;;;;;;;5.50;2.47;;;10.10;1.00;;;;;;5048656;28;20371;-76
2023/12/25 06:48:30;;;;;;;1.80;0.70;;;10.10;1.00;;;;;;5041844;28;20044;-77
2023/12/25 06:50:57;;;;;;;0.60;0.60;;;10.10;1.00;;;;;;5039334;28;20034;-76
2023/12/25 06:53:23;;;;;;;0.38;0.38;;;10.20;1.00;;;;;;5020988;28;20045;-76
2023/12/25 06:55:49;;;;;;;0.20;0.20;;;10.10;1.00;;;;;;5033154;28;20034;-76
2023/12/25 06:58:16;;;;;;;0.10;0.10;;;10.10;1.00;;;;;;5023902;28;20041;-77
2023/12/25 07:00:42;;;;;;;0.10;0.10;;;10.10;1.00;;;;;;5022588;28;20044;-76
2023/12/25 07:03:08;;;;;;;0.10;0.10;;;10.10;1.00;;;;;;5041299;28;20029;-76
2023/12/25 07:05:34;;;;;;;0.10;0.10;;;10.10;1.00;;;;;;5048786;28;20040;-76
2023/12/25 07:08:00;;;;;;;0.57;0.57;;;10.10;1.00;;;;;;5046109;28;20041;-76
2023/12/25 07:10:27;;;;;;;0.10;0.10;;;10.10;1.00;;;;;;5015434;28;20049;-77
2023/12/25 07:12:53;;;;;;;0.10;0.10;;;10.10;1.00;;;;;;5039269;28;20029;-77
2023/12/25 07:15:19;;;;;;;0.10;0.10;;;10.10;1.00;;;;;;5030175;28;20060;-78
2023/12/25 07:17:45;;;;;;;0.52;0.45;;;10.20;1.00;;;;;;5044004;28;20033;-76
2023/12/25 07:20:11;;;;;;;0.52;0.47;;;10.20;1.00;;;;;;5044184;28;20037;-76
2023/12/25 07:22:38;;;;;;;0.10;0.10;;;10.20;1.00;;;;;;5039508;28;20394;-77
2023/12/25 07:25:06;;;;;;;0.10;0.10;;;10.20;1.00;;;;;;5037492;28;20394;-77
2023/12/25 07:27:33;;;;;;;0.30;0.20;;;10.10;1.00;;;;;;5049965;28;20040;-77
2023/12/25 07:29:59;;;;;;;1.23;1.05;;;10.10;1.00;;;;;;5043625;28;20499;-76
2023/12/25 07:32:28;;;;;;;0.52;0.50;;;10.10;1.00;;;;;;5042649;28;20044;-77
2023/12/25 07:34:54;;;;;;;0.25;0.25;;;10.10;1.00;;;;;;5038686;28;20042;-76
2023/12/25 07:37:20;;;;;;;0.20;0.20;;;10.10;1.00;;;;;;5030017;28;20093;-77
2023/12/25 07:39:46;;;;;;;0.30;0.30;;;10.10;3.90;;;;;;5029539;28;20037;-76
2023/12/25 07:42:12;;;;;;;0.52;0.45;;;10.00;17.80;;;;;;5041784;28;20030;-77
2023/12/25 07:44:39;;;;;;;0.20;0.20;;;10.00;30.00;;;;;;5039392;28;20052;-78
2023/12/25 07:47:06;;;;;;;0.17;0.17;;;10.00;42.90;;;;;;5034982;28;20478;-77
2023/12/25 07:49:32;;;;;;;0.10;0.10;;;9.90;60.30;;;;;;5055383;28;20029;-77
2023/12/25 07:51:58;;;;;;;0.30;0.30;;;9.90;82.10;;;;;;5043542;28;20029;-77
2023/12/25 07:54:25;;;;;;;0.20;0.20;;;9.90;98.60;;;;;;5037300;28;20041;-77
2023/12/25 07:56:51;;;;;;;0.15;0.15;;;9.90;99.90;;;;;;5042785;28;20059;-77
2023/12/25 07:59:20;;;;;;;0.45;0.45;;;9.90;99.90;;;;;;5037664;28;20029;-82
2023/12/25 08:01:46;;;;;;;0.10;0.10;;;9.80;99.90;;;;;;5045020;28;20029;-77
2023/12/25 08:04:12;;;;;;;0.10;0.10;;;9.90;99.90;;;;;;5020925;28;20046;-77
2023/12/25 08:06:38;;;;;;;0.10;0.10;;;9.90;99.90;;;;;;5044139;28;20025;-76
2023/12/25 08:09:04;;;;;;;0.10;0.10;;;9.90;84.10;;;;;;5031305;28;20466;-78
2023/12/25 08:11:30;;;;;;;0.10;0.10;;;10.00;56.00;;;;;;5043084;28;20382;-78
2023/12/25 08:13:57;;;;;;;0.20;0.20;;;10.00;46.70;;;;;;5026196;28;20044;-76
2023/12/25 08:16:23;;;;;;;0.30;0.30;;;10.10;20.60;;;;;;5038280;28;20033;-76
2023/12/25 08:18:49;;;;;;;0.10;0.10;;;10.10;20.40;;;;;;5042724;28;20041;-76
2023/12/25 08:21:17;;;;;;;0.10;0.10;;;10.10;23.20;;;;;;5044868;28;20048;-78
2023/12/25 08:23:43;;;;;;;0.10;0.10;;;10.20;16.90;;;;;;5038581;28;20036;-77
2023/12/25 08:26:09;;;;;;;0.10;0.10;;;10.20;22.90;;;;;;5045870;28;20135;-78
2023/12/25 08:28:40;;;;;;;0.35;0.35;;;10.20;15.60;;;;;;5027050;28;20041;-78
2023/12/25 08:31:07;;;;;;;0.30;0.30;;;10.20;26.50;;;;;;5054812;28;20049;-78
2023/12/25 08:33:36;;;;;;;0.10;0.10;;;10.20;45.70;;;;;;5042025;28;20063;-78
2023/12/25 08:36:02;;;;;;;0.10;0.10;;;10.20;21.70;;;;;;5041225;28;20041;-79
2023/12/25 08:38:28;;;;;;;0.20;0.20;;;10.20;28.20;;;;;;5006032;28;20038;-78
2023/12/25 08:40:55;;;;;;;0.10;0.10;;;10.20;17.20;;;;;;5020142;28;20041;-78
2023/12/25 08:43:21;;;;;;;0.10;0.10;;;10.20;28.80;;;;;;5044706;28;20061;-77
2023/12/25 08:45:47;;;;;;;0.40;0.40;;;10.20;25.30;;;;;;5042396;28;20047;-77
2023/12/25 08:48:13;;;;;;;0.10;0.10;;;10.20;10.70;;;;;;5041640;28;20402;-78
2023/12/25 08:50:40;;;;;;;0.10;0.10;;;10.20;11.40;;;;;;5044329;28;20048;-76
2023/12/25 08:53:06;;;;;;;0.10;0.10;;;10.30;1.00;;;;;;5047063;28;20100;-77
2023/12/25 08:55:32;;;;;;;0.10;0.10;;;10.30;3.00;;;;;;5030441;28;20040;-79
2023/12/25 08:57:59;;;;;;;0.10;0.10;;;10.40;1.00;;;;;;5040605;28;20025;-79
2023/12/25 09:00:25;;;;;;;0.30;0.28;;;10.40;1.00;;;;;;5035038;28;20036;-79
2023/12/25 09:02:51;;;;;;;0.60;0.55;;;10.40;1.00;;;;;;5036390;28;20044;-77
2023/12/25 09:05:18;;;;;;;1.00;0.73;;;10.50;1.00;;;;;;5041780;28;20048;-81
2023/12/25 09:07:44;;;;;;;0.57;0.57;;;10.50;1.00;;;;;;5041330;28;20041;-78
2023/12/25 09:10:10;;;;;;;0.50;0.35;;;10.40;1.00;;;;;;5029562;28;20045;-77
2023/12/25 09:12:36;;;;;;;0.10;0.10;;;10.50;1.00;;;;;;5020250;28;20037;-78
2023/12/25 09:15:04;;;;;;;0.10;0.10;;;10.50;1.00;;;;;;5043901;28;20041;-78
2023/12/25 09:17:31;;;;;;;0.20;0.20;;;10.50;1.00;;;;;;5029871;28;20056;-78
2023/12/25 09:19:57;;;;;;;0.10;0.10;;;10.60;1.00;;;;;;5019236;28;20033;-77
2023/12/25 09:22:25;;;;;;;0.10;0.10;;;10.60;1.00;;;;;;5034483;28;20046;-80
2023/12/25 09:24:51;;;;;;;0.10;0.10;;;10.60;1.00;;;;;;5041468;28;20402;-78
2023/12/25 09:27:17;;;;;;;0.10;0.10;;;10.60;1.00;;;;;;5042640;28;20045;-83
2023/12/25 09:29:44;;;;;;;0.10;0.10;;;10.60;1.00;;;;;;5041919;28;20037;-80
2023/12/25 09:32:10;;;;;;;0.10;0.10;;;10.60;1.00;;;;;;5020855;28;20486;-83
2023/12/25 09:34:37;;;;;;;0.60;0.35;;;10.70;1.00;;;;;;5031871;28;20056;-81
2023/12/25 09:37:03;;;;;;;0.10;0.10;;;10.70;1.00;;;;;;5042705;28;20041;-80
2023/12/25 09:39:29;;;;;;;0.10;0.10;;;10.70;1.00;;;;;;5034564;28;20030;-79
2023/12/25 09:41:56;;;;;;;0.45;0.45;;;10.70;1.00;;;;;;5037376;28;20029;-79
2023/12/25 09:44:22;;;;;;;0.10;0.10;;;10.80;1.00;;;;;;5023684;28;20052;-80
2023/12/25 09:46:49;;;;;;;0.10;0.10;;;10.70;1.00;;;;;;5030246;28;20379;-79
2023/12/25 09:49:16;;;;;;;0.10;0.10;;;10.80;1.00;;;;;;5039317;28;20037;-80
2023/12/25 09:51:44;;;;;;;0.00;0.00;;;10.70;1.00;;;;;;5021616;28;20030;-79
2023/12/25 09:54:10;;;;;;;0.13;0.13;;;10.80;1.00;;;;;;5034402;28;20044;-80
2023/12/25 09:56:37;;;;;;;0.20;0.20;;;10.80;1.00;;;;;;5038294;28;20025;-79
2023/12/25 09:59:06;;;;;;;0.10;0.10;;;10.80;1.00;;;;;;5040553;28;20064;-79
2023/12/25 10:01:34;;;;;;;0.10;0.10;;;10.80;1.00;;;;;;5018775;28;20034;-80
2023/12/25 10:04:01;;;;;;;0.20;0.20;;;10.80;1.00;;;;;;5036107;28;20044;-80
2023/12/25 10:06:27;;;;;;;0.20;0.20;;;10.80;1.00;;;;;;5037802;28;20040;-81
2023/12/25 10:08:53;;;;;;;0.43;0.20;;;10.80;1.00;;;;;;5046765;28;20042;-78
2023/12/25 10:11:21;;;;;;;0.10;0.10;;;10.80;1.00;;;;;;5052745;28;20475;-77
2023/12/25 10:13:47;;;;;;;0.25;0.25;;;10.80;1.00;;;;;;5040304;28;20042;-78
2023/12/25 10:16:13;;;;;;;0.93;0.57;;;10.90;1.00;;;;;;5033869;28;20037;-80
2023/12/25 10:18:39;;;;;;;0.45;0.40;;;10.90;1.00;;;;;;5035208;28;20052;-80
2023/12/25 10:21:06;;;;;;;0.25;0.25;;;10.90;1.00;;;;;;5029970;28;20443;-79
2023/12/25 10:23:34;;;;;;;0.98;0.65;;;10.90;1.00;;;;;;5039048;28;20875;-79
2023/12/25 10:26:03;;;;;;;1.73;1.33;;;10.90;1.00;;;;;;5033469;28;20056;-78
2023/12/25 10:28:34;;;;;;;0.20;0.20;;;10.90;1.00;;;;;;5056004;28;20045;-81
2023/12/25 10:31:05;;;;;;;0.10;0.10;;;10.90;1.00;;;;;;5033556;28;20048;-80
2023/12/25 10:33:32;;;;;;;0.10;0.10;;;11.00;1.00;;;;;;5021546;28;20041;-81
2023/12/25 10:36:06;;;;;;;0.10;0.10;;;11.00;1.00;;;;;;5030792;28;20041;-80
2023/12/25 10:38:38;;;;;;;0.20;0.20;;;11.00;1.00;;;;;;5034106;28;20483;-81
2023/12/25 10:41:20;;;;;;;0.10;0.10;;;10.90;1.00;;;;;;5030380;28;20041;-80
2023/12/25 10:44:05;;;;;;;0.22;0.22;;;11.00;1.00;;;;;;5019686;28;20042;-77
2023/12/25 10:46:41;;;;;;;0.20;0.20;;;10.90;1.00;;;;;;5040361;28;20390;-77
2023/12/25 10:49:09;;;;;;;0.10;0.10;;;10.90;1.00;;;;;;5036552;28;20029;-79
2023/12/25 10:51:40;;;;;;;0.45;0.43;;;10.80;1.00;;;;;;5044313;28;20041;-80
2023/12/25 10:54:09;;;;;;;0.20;0.20;;;10.50;1.00;;;;;;5043213;28;20040;-79
2023/12/25 10:56:37;;;;;;;0.25;0.20;;;10.10;1.00;;;;;;5038893;28;20125;-76
2023/12/25 10:59:23;;;;;;;0.75;0.50;;;9.90;1.00;;;;;;5033763;28;20537;-79
2023/12/25 11:01:51;;;;;;;0.45;0.45;;;9.80;1.00;;;;;;5023939;28;20037;-78
2023/12/25 11:04:20;;;;;;;0.22;0.22;;;9.70;15.90;;;;;;5031927;28;20045;-78
2023/12/25 11:06:49;;;;;;;0.40;0.40;;;9.50;47.10;;;;;;5031117;28;20025;-77
2023/12/25 11:09:19;;;;;;;0.40;0.40;;;9.50;60.10;;;;;;5033396;28;20033;-78
2023/12/25 11:11:46;;;;;;;;;;;9.40;90.50;;;;;;5032868;28;20029;-78
2023/12/25 11:14:13;;;;;;;0.20;0.20;;;9.40;97.50;;;;;;5047447;28;19908;-78
2023/12/25 11:16:39;;;;;;;0.10;0.10;;;9.30;99.90;;;;;;5042721;28;20643;-79
2023/12/25 11:19:05;;;;;;;0.13;0.13;;;9.30;99.90;;;;;;5039132;28;20044;-77
2023/12/25 11:21:33;;;;;;;0.30;0.30;;;9.30;99.90;;;;;;5058487;28;20052;-81
2023/12/25 11:24:02;;;;;;;3.47;1.33;;;9.30;99.90;;;;;;5045767;28;20024;-79
2023/12/25 11:26:29;;;;;;;2.78;2.55;;;9.30;99.90;;;;;;5025451;28;20041;-78
2023/12/25 11:29:01;;;;;;;6.68;3.35;;;9.30;99.90;;;;;;5024915;28;20045;-80
2023/12/25 11:31:28;;;;;;;1.10;0.85;;;9.30;99.90;;;;;;5014943;28;20045;-78
2023/12/25 11:34:22;;;;;;;0.63;0.60;;;9.30;99.90;;;;;;5027523;28;20057;-83
2023/12/25 11:36:58;;;;;;;0.60;0.60;;;9.20;99.90;;;;;;5028145;28;20041;-80
2023/12/25 11:39:28;;;;;;;3.17;1.23;;;9.20;99.90;;;;;;5022293;28;20398;-81
2023/12/25 11:41:55;;;;;;;1.00;0.90;;;9.20;99.90;;;;;;5026128;28;20045;-82
2023/12/25 11:44:32;;;;;;;0.65;0.65;;;9.20;99.90;;;;;;5033223;28;20525;-79
2023/12/25 11:47:00;;;;;;;0.63;0.57;;;9.20;99.90;;;;;;5041150;28;20037;-80
2023/12/25 11:49:33;;;;;;;0.55;0.55;;;9.30;99.90;;;;;;5016974;28;20488;-79
2023/12/25 11:51:59;;;;;;;0.30;0.30;;;9.20;99.90;;;;;;5042244;28;20126;-78
2023/12/25 11:54:33;;;;;;;0.20;0.20;;;9.20;99.90;;;;;;5032438;28;20040;-78
2023/12/25 11:57:15;;;;;;;0.73;0.73;;;9.20;99.90;;;;;;5030478;28;20036;-77
2023/12/25 11:59:43;;;;;;;1.25;1.17;;;9.20;99.90;;;;;;5038516;28;20033;-79
2023/12/25 12:02:11;;;;;;;0.55;0.52;;;9.20;99.90;;;;;;5025504;28;20045;-77
2023/12/25 12:04:38;;;;;;;0.95;0.85;;;9.10;99.90;;;;;;5042877;28;20056;-79
2023/12/25 12:07:04;;;;;;;0.63;0.40;;;9.10;99.90;;;;;;5046864;28;20471;-78
2023/12/25 12:09:30;;;;;;;0.52;0.52;;;9.10;99.90;;;;;;5057213;28;20042;-79
2023/12/25 12:11:57;;;;;;;1.52;0.55;;;9.20;99.90;;;;;;5039104;28;20030;-80
2023/12/25 12:14:24;;;;;;;0.20;0.20;;;9.10;99.90;;;;;;5011531;28;20037;-77
2023/12/25 12:16:50;;;;;;;1.08;1.02;;;9.10;99.90;;;;;;5027103;28;20041;-79
2023/12/25 12:19:18;;;;;;;0.45;0.45;;;9.10;99.90;;;;;;5032212;28;20037;-77
2023/12/25 12:21:44;;;;;;;1.60;1.50;;;9.10;99.90;;;;;;5055967;28;20044;-78
2023/12/25 12:24:27;;;;;;;0.70;0.70;;;9.10;99.90;;;;;;5046168;28;20033;-77
2023/12/25 12:26:53;;;;;;;0.63;0.55;;;9.10;99.90;;;;;;5049674;28;20033;-78
2023/12/25 12:29:20;;;;;;;0.55;0.55;;;9.20;99.90;;;;;;5031304;28;20048;-82
2023/12/25 12:31:46;;;;;;;0.22;0.22;;;9.20;99.90;;;;;;5041250;28;20457;-77
2023/12/25 12:34:12;;;;;;;0.40;0.40;;;9.20;99.90;;;;;;5021391;28;20398;-78
2023/12/25 12:36:39;;;;;;;0.70;0.70;;;9.30;99.90;;;;;;5040538;28;20076;-79
2023/12/25 12:39:05;;;;;;;0.45;0.43;;;9.30;99.90;;;;;;5046969;28;20044;-78
2023/12/25 12:41:32;;;;;;;0.50;0.50;;;9.30;99.90;;;;;;5064567;28;20029;-78
2023/12/25 12:43:59;;;;;;;0.25;0.17;;;9.40;99.90;;;;;;5040452;28;20033;-76
2023/12/25 12:46:25;;;;;;;0.35;0.35;;;9.50;99.90;;;;;;5047166;28;20459;-77
2023/12/25 12:48:51;;;;;;;2.40;0.45;;;9.50;99.90;;;;;;5016672;28;20045;-77
2023/12/25 12:51:18;;;;;;;0.88;0.88;;;9.50;99.90;;;;;;5032689;28;20045;-77
2023/12/25 12:53:44;;;;;;;0.55;0.55;;;9.50;99.90;;;;;;5039917;28;20406;-79
2023/12/25 12:56:11;;;;;;;0.47;0.38;;;9.60;99.90;;;;;;5050776;28;20041;-77